Time;durP1;ratioP1;P1;durP2;ratioP2;P2;SDS_P1;SDS_P2;PMS_P1;PMS_P2;Temp;Humidity;BMP_temperature;BMP_pressure;BME280_temperature;BME280_humidity;BME280_pressure;Samples;Min_cycle;Max_cycle;Signal;HPM_P1;HPM_P2
2021/03/19 00:01:00;;;;;;;12.68;3.55;;;;;;;23.66;36.61;99563.41;4484990;32;33162;-57
2021/03/19 00:03:28;;;;;;;10.80;4.57;;;;;;;23.64;36.64;99562.81;4484993;32;33715;-47
2021/03/19 00:05:56;;;;;;;10.55;3.75;;;;;;;23.64;36.71;99562.81;4485002;32;34773;-52
2021/03/19 00:08:24;;;;;;;12.63;4.45;;;;;;;23.62;36.76;99566.78;4484850;32;33978;-52
2021/03/19 00:10:52;;;;;;;12.23;3.17;;;;;;;23.63;36.99;99555.66;4485028;32;33163;-50
2021/03/19 00:13:18;;;;;;;13.60;3.25;;;;;;;23.62;37.00;99558.63;4484713;32;33274;-57
2021/03/19 00:15:46;;;;;;;11.15;3.03;;;;;;;23.60;37.04;99553.41;4484732;32;33958;-50
2021/03/19 00:18:13;;;;;;;11.10;3.47;;;;;;;23.59;37.04;99554.44;4485000;32;33406;-52
2021/03/19 00:20:42;;;;;;;7.45;3.10;;;;;;;23.59;37.06;99545.47;4485073;32;33042;-49
2021/03/19 00:23:09;;;;;;;9.90;3.47;;;;;;;23.57;37.18;99544.88;4484826;32;34997;-50
2021/03/19 00:25:37;;;;;;;8.13;3.35;;;;;;;23.56;37.36;99537.78;4484808;32;33921;-53
2021/03/19 00:28:04;;;;;;;11.52;3.35;;;;;;;23.56;37.47;99546.78;4484963;32;33780;-51
2021/03/19 00:30:32;;;;;;;9.95;3.15;;;;;;;23.55;37.50;99545.13;4484617;32;33981;-53
2021/03/19 00:33:01;;;;;;;11.75;3.33;;;;;;;23.55;37.53;99536.94;4484630;32;34731;-50
2021/03/19 00:35:28;;;;;;;10.68;3.20;;;;;;;23.55;37.52;99549.72;4484794;32;33609;-46
2021/03/19 00:37:55;;;;;;;8.77;3.05;;;;;;;23.53;37.54;99536.34;4483401;32;35099;-52
2021/03/19 00:40:22;;;;;;;13.70;4.15;;;;;;;23.52;37.53;99533.84;4484562;32;34265;-54
2021/03/19 00:42:49;;;;;;;12.82;3.30;;;;;;;23.51;37.45;99538.47;4484754;32;35339;-55
2021/03/19 00:45:17;;;;;;;16.25;3.58;;;;;;;23.50;37.04;99531.38;4484749;32;34835;-47
2021/03/19 00:47:51;;;;;;;15.05;3.62;;;;;;;23.51;36.84;99538.47;4484643;32;33735;-52
2021/03/19 00:50:39;;;;;;;20.85;3.70;;;;;;;23.50;37.20;99535.97;4484604;32;33422;-50
2021/03/19 00:53:07;;;;;;;10.10;3.10;;;;;;;23.51;37.22;99535.75;4484599;32;33872;-46
2021/03/19 00:55:34;;;;;;;10.20;3.35;;;;;;;23.48;37.21;99536.19;4484833;32;34759;-51
2021/03/19 00:58:01;;;;;;;18.65;3.87;;;;;;;23.46;37.17;99535.63;4485058;32;34311;-54
2021/03/19 01:00:30;;;;;;;15.40;3.67;;;;;;;23.45;37.15;99538.56;4484690;32;33835;-51
2021/03/19 01:02:57;;;;;;;16.73;3.60;;;;;;;23.42;37.22;99535.25;4484179;32;33921;-58
2021/03/19 01:05:26;;;;;;;10.23;3.65;;;;;;;23.41;37.27;99532.78;4483352;32;33811;-47
2021/03/19 01:07:54;;;;;;;7.60;2.85;;;;;;;23.41;37.29;99533.59;4484586;32;33940;-52
2021/03/19 01:10:55;;;;;;;10.45;3.65;;;;;;;23.42;37.33;99537.16;4484529;32;34328;-51
2021/03/19 01:13:23;;;;;;;18.70;3.25;;;;;;;23.40;37.34;99537.34;4474230;31;33664;-51
2021/03/19 01:15:51;;;;;;;10.88;3.37;;;;;;;23.39;37.30;99534.88;4484592;32;34601;-58
2021/03/19 01:18:23;;;;;;;12.32;3.28;;;;;;;23.37;37.33;99531.56;4484710;32;33504;-50
2021/03/19 01:20:58;;;;;;;12.70;3.45;;;;;;;23.36;37.39;99533.47;4484180;32;33324;-50
2021/03/19 01:23:25;;;;;;;6.62;2.97;;;;;;;23.35;37.51;99531.78;4484518;32;33802;-56
2021/03/19 01:25:55;;;;;;;9.18;3.53;;;;;;;23.35;37.51;99539.13;4484460;32;34769;-51
2021/03/19 01:28:22;;;;;;;13.93;3.75;;;;;;;23.34;37.54;99526.59;4484217;32;33752;-56
2021/03/19 01:30:49;;;;;;;11.38;3.40;;;;;;;23.33;37.59;99525.75;4484186;32;35298;-48
2021/03/19 01:33:16;;;;;;;8.90;3.20;;;;;;;23.32;37.76;99524.09;4484244;32;34709;-58
2021/03/19 01:35:44;;;;;;;8.80;2.85;;;;;;;23.32;37.75;99526.81;4484478;32;33855;-47
2021/03/19 01:38:12;;;;;;;9.43;3.35;;;;;;;23.32;37.77;99526.00;4484259;32;33337;-57
2021/03/19 01:40:41;;;;;;;9.25;3.25;;;;;;;23.31;37.78;99529.75;4484386;32;34038;-59
2021/03/19 01:43:21;;;;;;;9.25;2.85;;;;;;;23.30;37.78;99528.09;4484161;32;33764;-54
2021/03/19 01:46:25;;;;;;;10.90;3.05;;;;;;;23.30;37.75;99526.22;4483053;32;34012;-56
2021/03/19 01:49:32;;;;;;;8.65;2.55;;;;;;;23.31;37.78;99524.31;4484302;32;35140;-54
2021/03/19 01:52:37;;;;;;;7.53;3.22;;;;;;;23.29;37.78;99526.44;4483452;32;34214;-52
2021/03/19 01:55:43;;;;;;;11.00;3.20;;;;;;;23.27;37.94;99520.37;4478512;32;34866;-49
2021/03/19 01:58:47;;;;;;;5.78;2.62;;;;;;;23.25;37.94;99522.53;4484221;32;34963;-55
2021/03/19 02:01:52;;;;;;;9.00;2.78;;;;;;;23.23;37.95;99514.59;4484277;32;33902;-50
2021/03/19 02:04:57;;;;;;;6.95;2.75;;;;;;;23.23;37.96;99525.50;4484202;32;33372;-54
2021/03/19 02:08:02;;;;;;;10.27;2.87;;;;;;;23.22;38.02;99528.44;4484247;32;34870;-51
2021/03/19 02:11:07;;;;;;;7.40;3.08;;;;;;;23.20;38.07;99531.38;4483933;32;33820;-59
2021/03/19 02:14:12;;;;;;;9.30;2.87;;;;;;;23.20;38.08;99533.28;4483880;32;33775;-56
2021/03/19 02:17:16;;;;;;;9.05;3.15;;;;;;;23.18;38.08;99528.09;4482661;32;32627;-54
2021/03/19 02:20:21;;;;;;;6.75;2.80;;;;;;;23.17;38.07;99529.97;4483830;32;34096;-50
2021/03/19 02:23:26;;;;;;;9.65;2.85;;;;;;;23.16;38.13;99531.00;4484334;32;33870;-51
2021/03/19 02:26:31;;;;;;;7.62;2.83;;;;;;;23.16;38.23;99535.63;4483031;32;32723;-51
2021/03/19 02:29:36;;;;;;;5.10;2.70;;;;;;;23.14;38.23;99530.44;4483859;32;33438;-53
2021/03/19 02:32:14;;;;;;;7.68;2.85;;;;;;;23.13;38.21;99526.06;4481176;32;90179;-57
2021/03/19 02:34:47;;;;;;;9.70;3.10;;;;;;;23.10;38.24;99525.69;4470194;32;34689;-53
2021/03/19 02:37:19;;;;;;;9.05;3.05;;;;;;;23.11;38.29;99532.78;4482735;32;34670;-50
2021/03/19 02:39:46;;;;;;;7.75;2.85;;;;;;;23.09;38.32;99530.28;4483745;32;34722;-48
2021/03/19 02:42:14;;;;;;;7.45;2.65;;;;;;;23.09;38.28;99524.84;4483912;32;34371;-53
2021/03/19 02:44:42;;;;;;;5.40;2.35;;;;;;;23.09;38.11;99530.28;4483841;32;34014;-46
2021/03/19 02:47:09;;;;;;;6.45;3.08;;;;;;;23.09;38.19;99527.56;4482378;32;33702;-57
2021/03/19 02:49:37;;;;;;;6.60;2.65;;;;;;;23.09;38.15;99524.84;4481409;32;33419;-49
2021/03/19 02:52:20;;;;;;;5.97;2.97;;;;;;;23.09;38.20;99524.84;4483492;32;33490;-52
2021/03/19 02:55:02;;;;;;;6.15;2.65;;;;;;;23.08;38.20;99525.91;4468183;32;34725;-58
2021/03/19 02:57:30;;;;;;;10.45;2.90;;;;;;;23.10;38.21;99528.41;4482279;32;34791;-52
2021/03/19 02:59:57;;;;;;;8.10;2.60;;;;;;;23.10;38.23;99525.69;4483656;32;33324;-54
2021/03/19 03:02:24;;;;;;;5.80;2.50;;;;;;;23.07;38.21;99529.69;4482323;32;34568;-52
2021/03/19 03:04:52;;;;;;;8.38;2.62;;;;;;;23.08;38.16;99527.78;4483767;32;33550;-57
2021/03/19 03:07:23;;;;;;;7.68;2.70;;;;;;;23.08;38.18;99527.78;4483526;32;33486;-49
2021/03/19 03:09:50;;;;;;;8.88;2.90;;;;;;;23.08;38.28;99528.63;4483501;32;33244;-51
2021/03/19 03:12:18;;;;;;;10.60;2.75;;;;;;;23.09;38.20;99527.56;4483530;32;33845;-55
2021/03/19 03:14:45;;;;;;;7.82;2.40;;;;;;;23.08;38.20;99523.19;4483717;32;33635;-54
2021/03/19 03:17:12;;;;;;;7.47;2.60;;;;;;;23.08;38.21;99530.50;4483818;32;34019;-51
2021/03/19 03:19:40;;;;;;;9.73;2.75;;;;;;;23.06;38.23;99522.56;4483385;32;34958;-56
2021/03/19 03:22:08;;;;;;;10.55;3.12;;;;;;;23.05;38.18;99526.38;4483482;32;34422;-53
2021/03/19 03:24:35;;;;;;;10.70;2.95;;;;;;;23.05;38.24;99534.53;4483433;32;33957;-55
2021/03/19 03:27:02;;;;;;;6.37;2.28;;;;;;;23.04;38.26;99532.88;4483458;32;33804;-60
2021/03/19 03:29:29;;;;;;;8.63;2.53;;;;;;;23.04;38.28;99532.06;4482092;32;33067;-53
2021/03/19 03:31:56;;;;;;;7.45;3.40;;;;;;;23.05;38.29;99530.97;4483367;32;33769;-49
2021/03/19 03:34:24;;;;;;;13.75;2.58;;;;;;;23.04;38.30;99537.50;4483116;32;33851;-59
2021/03/19 03:36:51;;;;;;;11.12;2.70;;;;;;;23.02;38.31;99534.97;4483112;32;33491;-50
2021/03/19 03:39:25;;;;;;;8.70;2.55;;;;;;;23.02;38.41;99534.97;4483295;32;33783;-52
2021/03/19 03:41:53;;;;;;;8.98;2.58;;;;;;;23.01;38.41;99527.87;4481849;32;34072;-47
2021/03/19 03:44:20;;;;;;;9.27;2.62;;;;;;;23.01;38.53;99527.87;4482979;32;34992;-54
2021/03/19 03:46:47;;;;;;;8.85;2.87;;;;;;;23.02;38.52;99526.00;4483244;32;34870;-56
2021/03/19 03:49:18;;;;;;;13.05;2.90;;;;;;;23.01;38.42;99525.16;4482908;32;33395;-52
2021/03/19 03:51:46;;;;;;;6.32;2.47;;;;;;;23.01;38.36;99522.44;4483097;32;33956;-50
2021/03/19 03:54:13;;;;;;;5.15;2.30;;;;;;;23.00;38.42;99520.78;4482799;32;33869;-54
2021/03/19 03:56:41;;;;;;;5.97;2.47;;;;;;;23.00;38.44;99526.22;4482866;32;33812;-51
2021/03/19 03:59:08;;;;;;;5.65;2.78;;;;;;;22.99;38.43;99524.56;4482913;32;34295;-55
2021/03/19 04:01:38;;;;;;;8.55;2.70;;;;;;;22.98;38.46;99522.88;4482843;32;34619;-51
2021/03/19 04:04:07;;;;;;;7.03;2.65;;;;;;;22.98;38.45;99527.50;4482709;32;33919;-51
2021/03/19 04:06:34;;;;;;;6.37;2.60;;;;;;;22.98;38.46;99524.78;4481710;32;34747;-52
2021/03/19 04:09:01;;;;;;;6.15;2.40;;;;;;;22.97;38.49;99523.97;4482905;32;33634;-58
2021/03/19 04:11:28;;;;;;;6.95;2.75;;;;;;;22.97;38.48;99529.41;4482336;32;34702;-49
2021/03/19 04:13:55;;;;;;;7.40;2.90;;;;;;;22.98;38.50;99535.66;4483343;32;34574;-55
2021/03/19 04:16:22;;;;;;;6.45;2.60;;;;;;;22.96;38.49;99525.03;4484930;32;33563;-52
2021/03/19 04:18:50;;;;;;;6.03;2.25;;;;;;;22.96;38.50;99526.91;4485063;32;34060;-51
2021/03/19 04:21:17;;;;;;;5.95;2.45;;;;;;;22.95;38.49;99528.81;4485198;32;33677;-53
2021/03/19 04:23:46;;;;;;;5.65;2.70;;;;;;;22.96;38.46;99529.63;4484863;32;34986;-48
2021/03/19 04:26:30;;;;;;;6.72;2.42;;;;;;;22.95;38.50;99528.00;4484665;32;34579;-56
2021/03/19 04:28:57;;;;;;;5.90;2.47;;;;;;;22.97;38.33;99528.56;4483436;32;33393;-54
2021/03/19 04:31:25;;;;;;;11.75;2.65;;;;;;;22.93;38.45;99528.19;4482730;32;34842;-62
2021/03/19 04:33:53;;;;;;;6.45;2.65;;;;;;;22.92;38.47;99535.53;4471275;32;34718;-62
2021/03/19 04:36:24;;;;;;;5.10;2.00;;;;;;;22.91;38.43;99535.78;4472179;32;34748;-62
2021/03/19 04:38:52;;;;;;;6.07;2.17;;;;;;;22.90;38.43;99534.94;4484705;32;33312;-58
2021/03/19 04:41:19;;;;;;;8.98;2.87;;;;;;;22.92;38.44;99540.16;4484001;32;34204;-62
2021/03/19 04:43:47;;;;;;;6.55;2.42;;;;;;;22.90;38.53;99537.66;4483587;32;33778;-61
2021/03/19 04:46:14;;;;;;;5.60;2.40;;;;;;;22.90;38.46;99542.28;4470549;32;34352;-62
2021/03/19 04:48:41;;;;;;;8.20;2.45;;;;;;;22.91;38.51;99543.94;4484725;32;33827;-58
2021/03/19 04:51:08;;;;;;;6.53;2.33;;;;;;;22.90;38.52;99550.44;4484681;32;33530;-62
2021/03/19 04:53:49;;;;;;;5.32;2.08;;;;;;;22.89;38.51;99548.75;4484807;32;33788;-62
2021/03/19 04:56:16;;;;;;;7.22;2.47;;;;;;;22.89;38.45;99549.59;4484705;32;34052;-62
2021/03/19 04:58:43;;;;;;;4.97;2.10;;;;;;;22.88;38.47;99550.63;4484625;32;33481;-61
2021/03/19 05:01:11;;;;;;;6.72;2.40;;;;;;;22.87;38.44;99551.69;4483810;32;33823;-56
2021/03/19 05:03:38;;;;;;;9.18;2.45;;;;;;;22.86;38.42;99555.47;4483234;32;34446;-47
2021/03/19 05:06:05;;;;;;;12.37;2.45;;;;;;;22.87;38.53;99550.84;4481450;32;33745;-56
2021/03/19 05:08:33;;;;;;;8.32;2.58;;;;;;;22.87;38.50;99548.12;4483772;32;33473;-51
2021/03/19 05:11:00;;;;;;;12.95;2.83;;;;;;;22.87;38.50;99553.56;4484387;32;34498;-51
2021/03/19 05:13:27;;;;;;;6.87;2.33;;;;;;;22.86;38.50;99546.47;4484337;32;34549;-60
2021/03/19 05:15:54;;;;;;;9.77;2.33;;;;;;;22.85;38.54;99551.09;4484631;32;33527;-46
2021/03/19 05:18:21;;;;;;;8.65;2.15;;;;;;;22.84;38.48;99557.56;4484889;32;33361;-52
2021/03/19 05:20:49;;;;;;;5.70;2.47;;;;;;;22.84;38.52;99559.47;4484289;32;34568;-48
2021/03/19 05:23:31;;;;;;;6.50;2.58;;;;;;;22.83;38.44;99555.91;4484753;32;33966;-56
2021/03/19 05:25:59;;;;;;;6.70;2.40;;;;;;;22.84;38.46;99551.31;4483361;32;34763;-58
2021/03/19 05:28:28;;;;;;;7.25;2.15;;;;;;;22.82;38.52;99548.81;4484418;32;33171;-49
2021/03/19 05:30:55;;;;;;;4.65;2.10;;;;;;;22.81;38.49;99549.06;4484582;32;34534;-57
2021/03/19 05:33:25;;;;;;;4.30;2.10;;;;;;;22.82;38.44;99556.97;4482989;32;33724;-54
2021/03/19 05:35:53;;;;;;;8.98;2.85;;;;;;;22.81;38.57;99557.22;4480605;32;33649;-62
2021/03/19 05:38:20;;;;;;;5.28;2.00;;;;;;;22.80;38.54;99559.13;4482361;32;33169;-50
2021/03/19 05:40:52;;;;;;;7.45;2.33;;;;;;;22.81;38.57;99560.78;4483108;32;33743;-51
2021/03/19 05:43:27;;;;;;;4.55;2.10;;;;;;;22.80;38.55;99559.13;4484272;32;33869;-49
2021/03/19 05:46:17;;;;;;;9.77;3.20;;;;;;;22.80;38.60;99553.66;4469940;32;33887;-52
2021/03/19 05:49:07;;;;;;;6.80;2.87;;;;;;;22.81;38.51;99563.50;4467379;32;33519;-48
2021/03/19 05:51:35;;;;;;;6.82;2.35;;;;;;;22.77;38.53;99566.91;4467420;32;33775;-56
2021/03/19 05:54:18;;;;;;;8.55;2.55;;;;;;;22.77;38.58;99562.28;4468618;32;34762;-48
2021/03/19 05:56:45;;;;;;;6.55;2.30;;;;;;;22.79;38.63;99567.47;4471487;32;33914;-56
2021/03/19 05:59:12;;;;;;;9.15;2.55;;;;;;;22.77;38.61;99575.06;4483041;32;33243;-50
2021/03/19 06:01:40;;;;;;;5.93;2.40;;;;;;;22.76;38.59;99571.50;4483065;32;33699;-55
2021/03/19 06:04:16;;;;;;;4.68;2.10;;;;;;;22.76;38.59;99568.78;4484138;32;33878;-53
2021/03/19 06:06:48;;;;;;;6.43;2.50;;;;;;;22.75;38.58;99569.00;4474424;32;34542;-62
2021/03/19 06:09:29;;;;;;;3.83;2.00;;;;;;;22.77;38.60;99575.06;4467323;32;32002;-56
2021/03/19 06:12:01;;;;;;;9.02;2.45;;;;;;;22.77;38.48;99577.78;4478589;32;33939;-62
2021/03/19 06:14:30;;;;;;;6.35;2.22;;;;;;;22.73;38.45;99577.38;4482538;32;34911;-58
2021/03/19 06:17:00;;;;;;;5.18;2.55;;;;;;;22.75;38.59;99577.97;4470190;32;33572;-61
2021/03/19 06:19:39;;;;;;;6.20;2.42;;;;;;;22.73;38.60;99582.81;4482967;32;34185;-60
2021/03/19 06:22:28;;;;;;;9.53;2.40;;;;;;;22.75;38.63;99582.59;4483680;32;33529;-58
2021/03/19 06:25:18;;;;;;;6.68;1.95;;;;;;;22.76;38.58;99587.00;4471430;32;33825;-62
2021/03/19 06:27:48;;;;;;;5.18;2.40;;;;;;;22.73;38.66;99582.81;4483145;32;33790;-57
2021/03/19 06:30:29;;;;;;;7.57;2.50;;;;;;;22.73;38.68;99584.72;4482686;32;34202;-62
2021/03/19 06:33:05;;;;;;;8.15;2.78;;;;;;;22.75;38.60;99593.47;4482912;32;34323;-59
2021/03/19 06:35:36;;;;;;;7.72;3.42;;;;;;;22.73;38.62;99592.88;4483823;32;34787;-61
2021/03/19 06:38:25;;;;;;;5.40;2.25;;;;;;;22.72;38.62;99592.06;4483411;32;34749;-57
2021/03/19 06:40:52;;;;;;;5.03;2.00;;;;;;;22.74;38.58;99594.53;4482457;32;33516;-58
2021/03/19 06:43:27;;;;;;;7.47;2.08;;;;;;;22.71;38.60;99589.53;4483753;32;33814;-60
2021/03/19 06:46:13;;;;;;;7.10;2.28;;;;;;;22.72;38.61;99591.22;4482684;32;34036;-57
2021/03/19 06:48:48;;;;;;;7.60;2.10;;;;;;;22.73;38.55;99595.59;4483985;32;33536;-61
2021/03/19 06:51:30;;;;;;;9.57;2.33;;;;;;;22.69;38.67;99594.38;4482647;32;33398;-59
2021/03/19 06:53:59;;;;;;;7.78;2.42;;;;;;;22.72;38.48;99597.50;4483872;32;34550;-59
2021/03/19 06:56:26;;;;;;;6.90;2.33;;;;;;;22.71;38.44;99597.69;4483877;32;33964;-62
2021/03/19 06:58:53;;;;;;;9.50;2.72;;;;;;;22.71;38.46;99592.25;4483552;32;33880;-61
2021/03/19 07:01:23;;;;;;;8.65;2.20;;;;;;;22.71;38.50;99597.69;4483811;32;33410;-62
2021/03/19 07:04:03;;;;;;;6.45;2.30;;;;;;;22.69;38.46;99597.94;4483944;32;35233;-60
2021/03/19 07:06:36;;;;;;;6.62;2.35;;;;;;;22.71;38.39;99598.56;4482443;32;34816;-63
2021/03/19 07:09:19;;;;;;;9.77;2.40;;;;;;;22.70;38.34;99596.03;4483763;32;33926;-62
2021/03/19 07:12:08;;;;;;;7.10;2.25;;;;;;;22.70;38.24;99599.59;4482353;32;33026;-63
2021/03/19 07:14:39;;;;;;;8.07;2.72;;;;;;;22.71;38.20;99609.44;4483562;32;33834;-61
2021/03/19 07:17:17;;;;;;;9.98;2.33;;;;;;;22.69;38.29;99608.00;4483667;32;34650;-60
2021/03/19 07:20:22;;;;;;;6.95;2.40;;;;;;;22.70;38.35;99615.06;4482240;32;34420;-53
2021/03/19 07:23:04;;;;;;;9.27;2.35;;;;;;;22.71;38.35;99608.56;4482204;32;33332;-50
2021/03/19 07:25:48;;;;;;;14.50;2.60;;;;;;;22.70;38.45;99615.06;4483517;32;33512;-62
2021/03/19 07:28:21;;;;;;;22.00;2.85;;;;;;;22.71;38.52;99614.00;4482101;32;34705;-62
2021/03/19 07:31:15;;;;;;;21.05;4.62;;;;;;;22.72;38.60;99618.44;4483239;32;34685;-60
2021/03/19 07:33:50;;;;;;;19.23;5.85;;;;;;;22.75;35.30;99620.66;4482164;32;33576;-65
2021/03/19 07:36:35;;;;;;;19.60;6.12;;;;;;;22.62;30.42;99617.06;4482222;32;33611;-61
2021/03/19 07:39:15;;;;;;;16.25;5.57;;;;;;;22.52;32.21;99618.59;4483363;32;34875;-63
2021/03/19 07:41:48;;;;;;;17.20;5.87;;;;;;;22.48;34.01;99623.69;4483195;32;34517;-62
2021/03/19 07:44:44;;;;;;;25.98;5.43;;;;;;;22.49;34.12;99622.63;4483229;32;34476;-59
2021/03/19 07:47:11;;;;;;;20.92;5.12;;;;;;;22.58;34.37;99628.59;4459894;31;34531;-61
2021/03/19 07:49:44;;;;;;;19.10;5.03;;;;;;;22.65;34.53;99629.34;4484406;32;33885;-62
2021/03/19 07:52:20;;;;;;;20.35;5.45;;;;;;;22.77;34.89;99624.00;4485013;32;33810;-59
2021/03/19 07:55:02;;;;;;;16.65;3.95;;;;;;;22.92;35.06;99630.75;4485273;32;33469;-60
2021/03/19 07:57:44;;;;;;;14.98;4.87;;;;;;;23.13;34.87;99631.38;4485348;32;34537;-60
2021/03/19 08:00:14;;;;;;;25.73;5.62;;;;;;;23.27;34.86;99635.59;4480302;32;33846;-60
2021/03/19 08:03:03;;;;;;;17.48;4.22;;;;;;;23.40;34.73;99634.56;4471945;32;33746;-61
2021/03/19 08:05:42;;;;;;;23.38;4.75;;;;;;;23.55;34.75;99629.53;4484860;32;33439;-59
2021/03/19 08:08:24;;;;;;;26.87;5.50;;;;;;;23.66;34.82;99630.66;4484444;32;33169;-60
2021/03/19 08:11:31;;;;;;;22.17;4.30;;;;;;;23.77;34.84;99642.66;4484864;32;33838;-60
2021/03/19 08:14:24;;;;;;;15.55;4.03;;;;;;;23.85;34.91;99637.72;4483494;32;33645;-62
2021/03/19 08:16:54;;;;;;;16.12;4.32;;;;;;;23.89;35.03;99633.44;4470619;32;33145;-61
2021/03/19 08:19:41;;;;;;;20.20;3.50;;;;;;;23.92;35.01;99626.69;4474503;32;33844;-61
2021/03/19 08:22:27;;;;;;;16.58;4.32;;;;;;;23.98;35.01;99631.22;4468119;32;33807;-62
2021/03/19 08:25:14;;;;;;;19.02;4.12;;;;;;;23.99;35.08;99624.69;4468923;32;34036;-62
2021/03/19 08:28:01;;;;;;;14.23;3.87;;;;;;;24.01;35.10;99630.75;4469024;32;33513;-62
2021/03/19 08:30:49;;;;;;;18.30;4.25;;;;;;;24.01;35.10;99633.47;4441974;32;33918;-60
2021/03/19 08:33:45;;;;;;;18.87;3.85;;;;;;;24.04;35.13;99629.44;4483141;32;34896;-61
2021/03/19 08:36:15;;;;;;;13.45;3.92;;;;;;;24.03;35.18;99617.72;4483385;32;34358;-60
2021/03/19 08:38:45;;;;;;;14.23;3.95;;;;;;;24.01;35.22;99621.72;4484575;32;33130;-60
2021/03/19 08:41:17;;;;;;;;;;;;;;;23.99;35.29;99619.25;4484944;32;33496;-61
2021/03/19 08:43:46;;;;;;;11.65;3.50;;;;;;;24.09;35.12;99630.41;4484751;32;34882;-61
2021/03/19 08:46:25;;;;;;;11.02;3.92;;;;;;;24.01;35.37;99624.47;4470387;32;33535;-59
2021/03/19 08:48:57;;;;;;;13.15;3.80;;;;;;;23.99;35.43;99615.69;4483286;32;33203;-61
2021/03/19 08:51:28;;;;;;;17.05;4.20;;;;;;;23.95;35.60;99612.59;4483305;32;33739;-62
2021/03/19 08:54:15;;;;;;;19.80;4.57;;;;;;;23.93;35.76;99612.03;4484415;32;34358;-60
2021/03/19 08:57:31;;;;;;;12.48;3.83;;;;;;;23.95;35.87;99614.50;4468791;32;33831;-60
2021/03/19 08:59:58;;;;;;;9.93;3.35;;;;;;;23.91;35.83;99616.84;4468466;32;33345;-62
2021/03/19 09:02:25;;;;;;;16.00;3.70;;;;;;;23.87;35.91;99619.22;4468951;32;33790;-62
2021/03/19 09:04:52;;;;;;;13.00;3.75;;;;;;;23.84;35.98;99618.88;4468944;32;33744;-61
2021/03/19 09:07:39;;;;;;;11.73;3.87;;;;;;;23.82;36.05;99610.91;4470725;32;34545;-59
2021/03/19 09:10:14;;;;;;;10.38;3.53;;;;;;;23.82;36.03;99612.81;4481107;32;33287;-56
2021/03/19 09:12:56;;;;;;;12.70;3.90;;;;;;;23.79;36.07;99611.41;4475519;32;33891;-60
2021/03/19 09:15:30;;;;;;;11.12;3.87;;;;;;;23.80;36.20;99601.34;4483435;32;33772;-60
2021/03/19 09:17:59;;;;;;;19.20;5.43;;;;;;;23.76;36.30;99595.50;4484395;32;33789;-61
2021/03/19 09:20:26;;;;;;;11.00;3.60;;;;;;;23.73;36.40;99603.31;4484308;32;34665;-60
2021/03/19 09:23:10;;;;;;;15.30;3.37;;;;;;;23.71;36.47;99598.09;4484539;32;33808;-61
2021/03/19 09:26:03;;;;;;;14.73;3.65;;;;;;;23.71;36.47;99598.09;4484256;32;35343;-60
2021/03/19 09:28:48;;;;;;;11.77;3.60;;;;;;;23.70;36.48;99601.06;4461113;31;33847;-59
2021/03/19 09:31:25;;;;;;;11.38;3.40;;;;;;;23.66;36.54;99592.53;4484037;32;34142;-61
2021/03/19 09:33:56;;;;;;;15.35;3.60;;;;;;;23.64;36.56;99590.06;4483845;32;33799;-61
2021/03/19 09:36:53;;;;;;;11.15;3.60;;;;;;;23.62;36.56;99585.84;4483839;32;34907;-61
2021/03/19 09:39:45;;;;;;;11.85;3.50;;;;;;;23.63;36.59;99582.87;4484248;32;34681;-60
2021/03/19 09:42:33;;;;;;;14.95;3.60;;;;;;;23.62;36.58;99583.13;4483041;32;33438;-61
2021/03/19 09:45:00;;;;;;;10.90;3.30;;;;;;;23.60;36.66;99577.94;4483573;32;33420;-62
2021/03/19 09:47:47;;;;;;;11.63;3.70;;;;;;;23.57;36.71;99583.00;4483974;32;33756;-58
2021/03/19 09:50:17;;;;;;;12.82;3.60;;;;;;;23.56;36.74;99576.72;4483887;32;33841;-61
2021/03/19 09:53:06;;;;;;;10.90;3.35;;;;;;;23.53;36.80;99577.19;4484037;32;34419;-60
2021/03/19 09:55:44;;;;;;;9.90;3.17;;;;;;;23.55;36.80;99579.66;4483672;32;34802;-61
2021/03/19 09:58:36;;;;;;;12.82;3.65;;;;;;;23.52;36.85;99572.81;4484038;32;34609;-61
2021/03/19 10:01:30;;;;;;;12.52;2.97;;;;;;;23.52;36.79;99570.09;4483900;32;33627;-53
2021/03/19 10:04:01;;;;;;;16.52;3.58;;;;;;;23.51;36.87;99565.72;4482876;32;33129;-59
2021/03/19 10:06:34;;;;;;;19.05;3.80;;;;;;;23.46;36.97;99570.19;4483880;32;33493;-61
2021/03/19 10:09:06;;;;;;;10.57;3.25;;;;;;;23.46;36.88;99575.63;4483981;32;34947;-62
2021/03/19 10:11:33;;;;;;;11.90;3.78;;;;;;;23.45;36.89;99572.06;4482735;32;33886;-60
2021/03/19 10:14:12;;;;;;;13.60;3.05;;;;;;;23.42;37.01;99584.25;4482550;32;34151;-62
2021/03/19 10:16:39;;;;;;;13.68;4.00;;;;;;;23.42;36.89;99575.25;4483936;32;33743;-61
2021/03/19 10:19:14;;;;;;;11.32;3.62;;;;;;;23.39;36.88;99575.72;4483849;32;34671;-61
2021/03/19 10:21:46;;;;;;;11.98;3.53;;;;;;;23.39;36.93;99578.44;4483773;32;33706;-62
2021/03/19 10:24:14;;;;;;;12.02;3.75;;;;;;;23.37;36.95;99575.13;4483725;32;34139;-61
2021/03/19 10:27:02;;;;;;;13.98;3.83;;;;;;;23.36;36.96;99574.31;4483748;32;33542;-60
2021/03/19 10:29:37;;;;;;;11.98;3.67;;;;;;;23.40;36.93;99577.38;4483783;32;34086;-62
2021/03/19 10:32:08;;;;;;;13.15;3.70;;;;;;;23.37;36.96;99573.25;4483701;32;34621;-61
2021/03/19 10:34:36;;;;;;;12.68;3.30;;;;;;;23.35;36.99;99572.63;4469597;32;34075;-61
2021/03/19 10:37:23;;;;;;;11.45;3.20;;;;;;;23.37;36.97;99580.59;4483668;32;33746;-61
2021/03/19 10:39:52;;;;;;;9.80;3.47;;;;;;;23.36;37.00;99568.00;4482386;32;34671;-61
2021/03/19 10:42:28;;;;;;;9.57;3.10;;;;;;;23.34;37.07;99562.81;4469616;32;33723;-60
2021/03/19 10:45:09;;;;;;;11.30;3.15;;;;;;;23.37;37.02;99566.97;4482466;32;33258;-63
2021/03/19 10:47:43;;;;;;;7.78;3.33;;;;;;;23.36;37.05;99568.00;4483665;32;34704;-62
2021/03/19 10:50:22;;;;;;;11.00;3.65;;;;;;;23.33;37.04;99557.59;4482377;32;34773;-59
2021/03/19 10:53:14;;;;;;;11.00;3.05;;;;;;;23.34;37.16;99559.25;4469550;32;34321;-61
2021/03/19 10:55:42;;;;;;;8.15;2.97;;;;;;;23.33;37.29;99554.88;4482318;32;34255;-61
2021/03/19 10:58:20;;;;;;;10.27;3.12;;;;;;;23.32;37.24;99555.94;4470034;32;33812;-61
2021/03/19 11:00:49;;;;;;;7.22;3.08;;;;;;;23.32;37.20;99550.50;4483322;32;33789;-61
2021/03/19 11:03:31;;;;;;;11.10;3.10;;;;;;;23.31;37.22;99559.69;4483344;32;34004;-60
2021/03/19 11:06:02;;;;;;;9.82;3.28;;;;;;;23.33;37.13;99549.44;4483196;32;33272;-58
2021/03/19 11:08:29;;;;;;;5.72;2.75;;;;;;;23.29;37.21;99545.50;4469557;32;33685;-59
2021/03/19 11:10:57;;;;;;;12.35;3.30;;;;;;;23.31;37.24;99548.81;4483655;32;33825;-60
2021/03/19 11:13:25;;;;;;;8.75;2.70;;;;;;;23.28;37.25;99541.97;4483184;32;34453;-62
2021/03/19 11:15:55;;;;;;;12.48;3.15;;;;;;;23.27;37.36;99545.75;4483489;32;33069;-62
2021/03/19 11:18:33;;;;;;;13.48;3.20;;;;;;;23.25;37.38;99542.41;4483626;32;33594;-62
2021/03/19 11:21:11;;;;;;;11.73;3.45;;;;;;;23.28;37.29;99535.69;4482352;32;33672;-62
2021/03/19 11:23:49;;;;;;;14.38;3.45;;;;;;;23.27;37.15;99540.31;4483447;32;34406;-59
2021/03/19 11:26:29;;;;;;;12.25;3.10;;;;;;;23.24;37.10;99542.66;4483371;32;34329;-62
2021/03/19 11:29:18;;;;;;;9.38;2.53;;;;;;;23.23;37.12;99538.28;4483390;32;33424;-60
2021/03/19 11:32:05;;;;;;;9.30;3.10;;;;;;;23.23;37.04;99532.84;4483643;32;34751;-63
2021/03/19 11:34:41;;;;;;;10.73;2.65;;;;;;;23.19;37.09;99532.47;4483102;32;34754;-62
2021/03/19 11:37:18;;;;;;;13.70;3.10;;;;;;;23.15;37.11;99532.09;4477780;32;33344;-62
2021/03/19 11:40:08;;;;;;;9.60;2.97;;;;;;;23.16;37.15;99530.19;4478580;32;33801;-61
2021/03/19 11:42:49;;;;;;;16.42;3.40;;;;;;;23.14;37.03;99530.44;4483052;32;33900;-61
2021/03/19 11:45:16;;;;;;;8.85;2.85;;;;;;;23.13;37.07;99530.66;4483341;32;33501;-62
2021/03/19 11:47:56;;;;;;;13.80;3.50;;;;;;;23.13;37.07;99530.66;4483008;32;33173;-61
2021/03/19 11:50:34;;;;;;;10.48;3.60;;;;;;;23.12;37.12;99524.38;4482768;32;34647;-60
2021/03/19 11:53:22;;;;;;;10.07;3.30;;;;;;;23.10;37.15;99520.22;4482963;32;34804;-62
2021/03/19 11:55:54;;;;;;;8.70;2.72;;;;;;;23.12;37.16;99516.19;4482816;32;34943;-62
2021/03/19 11:58:24;;;;;;;9.02;3.05;;;;;;;23.10;37.19;99514.78;4481485;32;32611;-61
2021/03/19 12:00:51;;;;;;;10.65;2.80;;;;;;;23.12;37.15;99510.75;4482851;32;33863;-61
2021/03/19 12:03:33;;;;;;;9.55;2.45;;;;;;;23.12;37.17;99507.22;4482834;32;33871;-61
2021/03/19 12:06:02;;;;;;;10.32;2.92;;;;;;;23.13;37.20;99514.34;4481272;32;34710;-59
2021/03/19 12:08:30;;;;;;;12.18;3.50;;;;;;;23.11;37.22;99506.37;4482634;32;32812;-61